Time;durP1;ratioP1;P1;durP2;ratioP2;P2;SDS_P1;SDS_P2;PMS_P1;PMS_P2;Temp;Humidity;BMP_temperature;BMP_pressure;BME280_temperature;BME280_humidity;BME280_pressure;Samples;Min_cycle;Max_cycle;Signal;HPM_P1;HPM_P2
2022/01/01 00:01:42;;;;;;;9.95;5.85;;;;;;;;;;4894317;28;20209;-61
2022/01/01 00:04:10;;;;;;;9.48;5.55;;;;;;;;;;4882107;28;20051;-61
2022/01/01 00:06:37;;;;;;;9.55;5.38;;;;;;;;;;4902325;28;20658;-62
2022/01/01 00:09:03;;;;;;;9.48;5.40;;;;;;;;;;4895622;28;20070;-62
2022/01/01 00:11:30;;;;;;;10.18;6.13;;;;;;;;;;4896004;28;20135;-62
2022/01/01 00:13:56;;;;;;;12.18;7.15;;;;;;;;;;4894219;28;20056;-63
2022/01/01 00:16:23;;;;;;;20.88;10.35;;;;;;;;;;4889525;28;20167;-63
2022/01/01 00:18:50;;;;;;;16.25;9.70;;;;;;;;;;4898248;28;20095;-64
2022/01/01 00:21:18;;;;;;;38.85;19.83;;;;;;;;;;4889199;28;20183;-61
2022/01/01 00:23:45;;;;;;;36.92;19.65;;;;;;;;;;4876574;28;20048;-62
2022/01/01 00:26:11;;;;;;;29.90;15.88;;;;;;;;;;4894972;28;20142;-62
2022/01/01 00:28:38;;;;;;;20.33;12.27;;;;;;;;;;4894973;28;20734;-62
2022/01/01 00:31:05;;;;;;;22.42;12.02;;;;;;;;;;4907517;28;20769;-61
2022/01/01 00:33:32;;;;;;;22.30;11.63;;;;;;;;;;4896273;28;20063;-61
2022/01/01 00:35:58;;;;;;;19.20;10.68;;;;;;;;;;4897652;28;20134;-61
2022/01/01 00:38:26;;;;;;;16.25;9.00;;;;;;;;;;4890732;28;20189;-61
2022/01/01 00:40:53;;;;;;;16.13;8.93;;;;;;;;;;4890112;28;21596;-62
2022/01/01 00:43:19;;;;;;;18.38;9.65;;;;;;;;;;4880188;28;20152;-61
2022/01/01 00:45:46;;;;;;;18.00;10.85;;;;;;;;;;4900509;28;20591;-62
2022/01/01 00:48:12;;;;;;;23.55;13.63;;;;;;;;;;4894715;28;20079;-62
2022/01/01 00:50:39;;;;;;;24.05;12.52;;;;;;;;;;4899786;28;20182;-63
2022/01/01 00:53:05;;;;;;;23.75;13.27;;;;;;;;;;4879521;28;20208;-62
2022/01/01 00:55:33;;;;;;;21.73;12.40;;;;;;;;;;4896872;28;20056;-62
2022/01/01 00:58:00;;;;;;;24.30;12.98;;;;;;;;;;4897299;28;20498;-62
2022/01/01 01:00:27;;;;;;;24.50;14.27;;;;;;;;;;4889034;28;20092;-62
2022/01/01 01:02:53;;;;;;;28.35;14.40;;;;;;;;;;4896239;28;20141;-63
2022/01/01 01:05:20;;;;;;;22.33;13.43;;;;;;;;;;4900764;28;20046;-62
2022/01/01 01:07:46;;;;;;;22.13;13.30;;;;;;;;;;4891981;28;20499;-62
2022/01/01 01:10:14;;;;;;;29.40;16.13;;;;;;;;;;4886471;28;20066;-59
2022/01/01 01:12:44;;;;;;;26.50;14.70;;;;;;;;;;4894375;28;20406;-62
2022/01/01 01:15:17;;;;;;;24.50;14.13;;;;;;;;;;4886282;28;20046;-62
2022/01/01 01:17:44;;;;;;;27.20;14.43;;;;;;;;;;4879637;28;20190;-61
2022/01/01 01:20:12;;;;;;;27.35;14.88;;;;;;;;;;4886158;28;21216;-61
2022/01/01 01:22:38;;;;;;;24.92;13.77;;;;;;;;;;4898969;28;20138;-62
2022/01/01 01:25:06;;;;;;;30.98;16.33;;;;;;;;;;4884616;28;20651;-62
2022/01/01 01:27:34;;;;;;;27.13;14.02;;;;;;;;;;4886727;28;20516;-62
2022/01/01 01:30:04;;;;;;;23.65;13.52;;;;;;;;;;4894124;28;20229;-62
2022/01/01 01:32:30;;;;;;;23.67;12.75;;;;;;;;;;4890568;28;20044;-61
2022/01/01 01:34:57;;;;;;;19.00;11.75;;;;;;;;;;4874999;28;20147;-57
2022/01/01 01:37:24;;;;;;;20.80;12.05;;;;;;;;;;4898391;28;20129;-62
2022/01/01 01:39:50;;;;;;;20.02;11.77;;;;;;;;;;4879052;28;20055;-62
2022/01/01 01:42:17;;;;;;;20.02;11.38;;;;;;;;;;4872738;28;20142;-63
2022/01/01 01:44:47;;;;;;;22.63;12.45;;;;;;;;;;4884791;28;20054;-62
2022/01/01 01:47:15;;;;;;;20.75;12.02;;;;;;;;;;4901168;28;20170;-57
2022/01/01 01:49:42;;;;;;;20.02;11.38;;;;;;;;;;4898336;28;20056;-61
2022/01/01 01:52:09;;;;;;;21.58;11.25;;;;;;;;;;4927049;28;20461;-62
2022/01/01 01:54:36;;;;;;;19.88;11.35;;;;;;;;;;4928079;28;20083;-62
2022/01/01 01:57:04;;;;;;;20.42;12.32;;;;;;;;;;4939371;28;20136;-60
2022/01/01 01:59:30;;;;;;;24.45;12.18;;;;;;;;;;4930237;28;20142;-61
2022/01/01 02:01:57;;;;;;;19.67;10.80;;;;;;;;;;4937039;28;20173;-61
2022/01/01 02:04:25;;;;;;;34.33;14.98;;;;;;;;;;4936074;28;20134;-58
2022/01/01 02:06:51;;;;;;;20.40;11.07;;;;;;;;;;4928892;28;20576;-60
2022/01/01 02:09:18;;;;;;;18.90;11.18;;;;;;;;;;4934515;28;20134;-62
2022/01/01 02:11:44;;;;;;;14.10;6.80;;;;;;;;;;4937495;28;20107;-58
2022/01/01 02:14:22;;;;;;;11.65;7.13;;;;;;;;;;4933728;28;20058;-62
2022/01/01 02:19:48;;;;;;;12.18;6.57;;;;;;;;;;4936411;28;20521;-61
2022/01/01 02:22:16;;;;;;;9.45;5.63;;;;;;;;;;4931391;28;20071;-58
2022/01/01 02:24:42;;;;;;;12.70;6.47;;;;;;;;;;4939972;28;20110;-61
2022/01/01 02:27:09;;;;;;;11.32;5.75;;;;;;;;;;4921586;28;20125;-62
2022/01/01 02:29:37;;;;;;;10.32;5.80;;;;;;;;;;4942349;28;20061;-61
2022/01/01 02:32:04;;;;;;;11.60;5.47;;;;;;;;;;4931484;28;20150;-62
2022/01/01 02:34:31;;;;;;;8.73;5.40;;;;;;;;;;4935797;28;20146;-61
2022/01/01 02:36:57;;;;;;;9.50;5.95;;;;;;;;;;4930621;28;20138;-61
2022/01/01 02:39:25;;;;;;;9.32;5.05;;;;;;;;;;4914529;28;21427;-60
2022/01/01 02:41:54;;;;;;;11.15;6.20;;;;;;;;;;4937126;28;20142;-61
2022/01/01 02:44:22;;;;;;;9.57;5.30;;;;;;;;;;4930609;28;20052;-62
2022/01/01 02:46:48;;;;;;;10.80;5.63;;;;;;;;;;4935268;28;20458;-59
2022/01/01 02:49:15;;;;;;;10.55;4.78;;;;;;;;;;4934730;28;20174;-62
2022/01/01 02:51:41;;;;;;;9.18;5.05;;;;;;;;;;4930175;28;20133;-62
2022/01/01 02:54:08;;;;;;;11.07;6.25;;;;;;;;;;4934734;28;20134;-59
2022/01/01 02:56:37;;;;;;;9.00;5.47;;;;;;;;;;4930508;28;20070;-60
2022/01/01 02:59:04;;;;;;;11.35;5.30;;;;;;;;;;4932588;28;20383;-60
2022/01/01 03:01:30;;;;;;;8.55;5.00;;;;;;;;;;4935553;28;20146;-60
2022/01/01 03:03:57;;;;;;;12.05;5.13;;;;;;;;;;4932390;28;20138;-62
2022/01/01 03:06:24;;;;;;;11.30;5.45;;;;;;;;;;4936605;28;20106;-62
2022/01/01 03:08:52;;;;;;;10.40;4.68;;;;;;;;;;4931229;28;20221;-59
2022/01/01 03:11:19;;;;;;;9.77;6.18;;;;;;;;;;4933355;28;20081;-62
2022/01/01 03:13:47;;;;;;;9.60;5.00;;;;;;;;;;4942320;28;20078;-62
2022/01/01 03:16:15;;;;;;;11.27;5.43;;;;;;;;;;4944867;28;20257;-61
2022/01/01 03:18:41;;;;;;;7.15;3.97;;;;;;;;;;4942045;28;20499;-59
2022/01/01 03:21:08;;;;;;;7.20;4.57;;;;;;;;;;4945409;28;20609;-62
2022/01/01 03:23:35;;;;;;;7.45;4.20;;;;;;;;;;4938377;28;20055;-59
2022/01/01 03:26:02;;;;;;;9.32;4.47;;;;;;;;;;4942417;28;20150;-61
2022/01/01 03:28:28;;;;;;;9.30;4.43;;;;;;;;;;4946840;28;20066;-61
2022/01/01 03:30:56;;;;;;;10.45;5.05;;;;;;;;;;4946515;28;20142;-61
2022/01/01 03:33:23;;;;;;;7.93;3.90;;;;;;;;;;4930094;28;20138;-62
2022/01/01 03:35:50;;;;;;;7.13;3.95;;;;;;;;;;4939634;28;20416;-62
2022/01/01 03:38:16;;;;;;;9.65;4.35;;;;;;;;;;4942776;28;20125;-62
2022/01/01 03:40:43;;;;;;;9.40;4.32;;;;;;;;;;4945660;28;20535;-61
2022/01/01 03:43:09;;;;;;;10.10;5.70;;;;;;;;;;4947117;28;20071;-62
2022/01/01 03:45:39;;;;;;;9.13;5.65;;;;;;;;;;4944480;28;21302;-62
2022/01/01 03:48:07;;;;;;;11.77;4.95;;;;;;;;;;4945467;28;20206;-61
2022/01/01 03:50:34;;;;;;;12.55;5.93;;;;;;;;;;4940046;28;20078;-60
2022/01/01 03:53:01;;;;;;;13.50;6.80;;;;;;;;;;4947203;28;20150;-61
2022/01/01 03:55:27;;;;;;;14.10;6.35;;;;;;;;;;4949139;28;20054;-63
2022/01/01 03:57:54;;;;;;;10.38;4.88;;;;;;;;;;4948180;28;20142;-62
2022/01/01 04:00:20;;;;;;;9.88;4.47;;;;;;;;;;4934205;28;20143;-61
2022/01/01 04:02:47;;;;;;;9.52;3.38;;;;;;;;;;4950434;28;20058;-62
2022/01/01 04:05:15;;;;;;;7.63;3.70;;;;;;;;;;4944387;28;20135;-59
2022/01/01 04:07:41;;;;;;;6.65;3.42;;;;;;;;;;4944724;28;20133;-62
2022/01/01 04:10:09;;;;;;;5.00;2.72;;;;;;;;;;4947488;28;20130;-63
2022/01/01 04:12:35;;;;;;;6.63;3.42;;;;;;;;;;4947107;28;20506;-61
2022/01/01 04:15:03;;;;;;;8.80;3.38;;;;;;;;;;4932556;28;20484;-62
2022/01/01 04:17:35;;;;;;;5.43;2.85;;;;;;;;;;4944364;28;20061;-59
2022/01/01 04:20:02;;;;;;;6.70;3.08;;;;;;;;;;4947911;28;20079;-62
2022/01/01 04:22:30;;;;;;;5.47;3.00;;;;;;;;;;4920513;28;20566;-58
2022/01/01 04:24:56;;;;;;;7.13;3.33;;;;;;;;;;4937994;28;20067;-58
2022/01/01 04:27:23;;;;;;;5.75;2.88;;;;;;;;;;4936441;28;20569;-60
2022/01/01 04:29:49;;;;;;;5.68;3.08;;;;;;;;;;4941336;28;20137;-61
2022/01/01 04:32:18;;;;;;;6.25;2.97;;;;;;;;;;4948880;28;20150;-61
2022/01/01 04:34:44;;;;;;;5.85;3.78;;;;;;;;;;4937312;28;20055;-61
2022/01/01 04:37:13;;;;;;;7.45;3.40;;;;;;;;;;4945741;28;20165;-59
2022/01/01 04:39:41;;;;;;;4.93;2.55;;;;;;;;;;4944360;28;20046;-61
2022/01/01 04:42:09;;;;;;;6.25;2.88;;;;;;;;;;4930667;28;20143;-61
2022/01/01 04:44:35;;;;;;;6.43;3.33;;;;;;;;;;4940487;28;20134;-61
2022/01/01 04:47:02;;;;;;;9.95;3.97;;;;;;;;;;4940118;28;20137;-61
2022/01/01 04:49:28;;;;;;;10.45;4.68;;;;;;;;;;4951065;28;20133;-59
2022/01/01 04:51:55;;;;;;;8.45;4.05;;;;;;;;;;4943198;28;20448;-61
2022/01/01 04:54:21;;;;;;;11.65;4.95;;;;;;;;;;4935135;28;20802;-61
2022/01/01 04:56:49;;;;;;;15.05;7.55;;;;;;;;;;4945433;28;20145;-58
2022/01/01 04:59:16;;;;;;;13.75;6.78;;;;;;;;;;4940050;28;20047;-57
2022/01/01 05:01:44;;;;;;;11.75;5.97;;;;;;;;;;4939546;28;20051;-61
2022/01/01 05:04:11;;;;;;;8.82;5.32;;;;;;;;;;4938773;28;20292;-62
2022/01/01 05:06:37;;;;;;;5.88;3.08;;;;;;;;;;4939215;28;20133;-60
2022/01/01 05:09:04;;;;;;;6.50;2.90;;;;;;;;;;4942766;28;20131;-59
2022/01/01 05:11:31;;;;;;;6.18;2.92;;;;;;;;;;4947297;28;20066;-61
2022/01/01 05:13:59;;;;;;;5.30;2.60;;;;;;;;;;4944342;28;20152;-59
2022/01/01 05:16:25;;;;;;;6.75;3.50;;;;;;;;;;4942466;28;20186;-60
2022/01/01 05:18:52;;;;;;;6.50;3.25;;;;;;;;;;4949960;28;20468;-59
2022/01/01 05:21:18;;;;;;;8.15;3.60;;;;;;;;;;4946743;28;21468;-59
2022/01/01 05:23:45;;;;;;;8.10;3.75;;;;;;;;;;4944507;28;20364;-60
2022/01/01 05:26:12;;;;;;;4.53;2.47;;;;;;;;;;4946850;28;20133;-59
2022/01/01 05:28:39;;;;;;;4.95;2.60;;;;;;;;;;4931227;28;20046;-61
2022/01/01 05:31:07;;;;;;;5.97;2.85;;;;;;;;;;4943026;28;20159;-60
2022/01/01 05:33:33;;;;;;;5.57;2.78;;;;;;;;;;4946368;28;20078;-62
2022/01/01 05:36:00;;;;;;;8.05;3.20;;;;;;;;;;4951070;28;20047;-61
2022/01/01 05:38:26;;;;;;;5.40;3.13;;;;;;;;;;4949212;28;20075;-61
2022/01/01 05:40:54;;;;;;;5.65;2.45;;;;;;;;;;4951841;28;20284;-62
2022/01/01 05:43:20;;;;;;;6.55;2.88;;;;;;;;;;4943281;28;20224;-61
2022/01/01 05:45:47;;;;;;;6.47;2.90;;;;;;;;;;4955109;28;20144;-62
2022/01/01 05:48:15;;;;;;;8.32;3.30;;;;;;;;;;4950690;28;20066;-61
2022/01/01 05:50:42;;;;;;;5.40;2.58;;;;;;;;;;4952066;28;20154;-62
2022/01/01 05:53:09;;;;;;;6.43;3.60;;;;;;;;;;4942713;28;20145;-60
2022/01/01 05:55:36;;;;;;;5.55;2.65;;;;;;;;;;4950582;28;20138;-62
2022/01/01 05:58:02;;;;;;;8.05;3.05;;;;;;;;;;4952946;28;20142;-62
2022/01/01 06:00:29;;;;;;;6.30;2.28;;;;;;;;;;4952979;28;20050;-61
2022/01/01 06:02:57;;;;;;;8.32;3.30;;;;;;;;;;4950865;28;20510;-59
2022/01/01 06:05:25;;;;;;;6.05;2.78;;;;;;;;;;4934565;28;20478;-58
2022/01/01 06:07:52;;;;;;;6.00;2.83;;;;;;;;;;4947235;28;20700;-61
2022/01/01 06:10:18;;;;;;;5.32;3.05;;;;;;;;;;4948711;28;20083;-61
2022/01/01 06:12:45;;;;;;;9.13;3.28;;;;;;;;;;4948236;28;20186;-58
2022/01/01 06:15:11;;;;;;;5.57;2.60;;;;;;;;;;4952815;28;20128;-61
2022/01/01 06:17:38;;;;;;;8.63;3.22;;;;;;;;;;4954727;28;20136;-63
2022/01/01 06:20:05;;;;;;;6.13;3.20;;;;;;;;;;4953051;28;20148;-60
2022/01/01 06:22:33;;;;;;;6.60;3.00;;;;;;;;;;4952591;28;20197;-61
2022/01/01 06:25:00;;;;;;;7.65;3.20;;;;;;;;;;4948168;28;20187;-62
2022/01/01 06:27:26;;;;;;;5.00;2.83;;;;;;;;;;4951520;28;20121;-62
2022/01/01 06:29:53;;;;;;;5.50;2.72;;;;;;;;;;4948191;28;20510;-61
2022/01/01 06:32:19;;;;;;;7.28;3.13;;;;;;;;;;4945749;28;20396;-58
2022/01/01 06:34:46;;;;;;;6.28;3.63;;;;;;;;;;4948818;28;20453;-59
2022/01/01 06:37:12;;;;;;;5.57;2.85;;;;;;;;;;4948623;28;20158;-61
2022/01/01 06:39:40;;;;;;;7.30;3.17;;;;;;;;;;4945184;28;20186;-58
2022/01/01 06:42:07;;;;;;;7.55;3.08;;;;;;;;;;4945058;28;20170;-59
2022/01/01 06:44:34;;;;;;;6.80;3.22;;;;;;;;;;4945283;28;20173;-62
2022/01/01 06:47:01;;;;;;;6.63;3.38;;;;;;;;;;4949023;28;20740;-61
2022/01/01 06:49:27;;;;;;;8.45;3.30;;;;;;;;;;4936901;28;20167;-59
2022/01/01 06:51:54;;;;;;;9.23;4.53;;;;;;;;;;4943932;28;20278;-60
2022/01/01 06:54:20;;;;;;;10.27;4.20;;;;;;;;;;4943427;28;20052;-61
2022/01/01 06:56:48;;;;;;;13.15;3.72;;;;;;;;;;4950952;28;20468;-62
2022/01/01 06:59:15;;;;;;;6.63;3.25;;;;;;;;;;4945372;28;20178;-61
2022/01/01 07:01:41;;;;;;;11.68;3.15;;;;;;;;;;4946339;28;20150;-62
2022/01/01 07:04:08;;;;;;;15.35;3.33;;;;;;;;;;4923236;28;20141;-59
2022/01/01 07:06:34;;;;;;;10.68;3.83;;;;;;;;;;4934179;28;20143;-60
2022/01/01 07:09:01;;;;;;;7.75;3.88;;;;;;;;;;4946181;28;20748;-62
2022/01/01 07:11:28;;;;;;;6.15;3.25;;;;;;;;;;4935537;28;20138;-56
2022/01/01 07:13:56;;;;;;;6.25;3.38;;;;;;;;;;4940970;28;20137;-59
2022/01/01 07:16:22;;;;;;;6.10;3.13;;;;;;;;;;4940651;28;20479;-59
2022/01/01 07:18:49;;;;;;;6.50;3.55;;;;;;;;;;4942416;28;20153;-58
2022/01/01 07:21:15;;;;;;;6.32;3.40;;;;;;;;;;4925709;28;20151;-63
2022/01/01 07:23:43;;;;;;;4.57;2.72;;;;;;;;;;4939151;28;20149;-62
2022/01/01 07:26:09;;;;;;;7.22;2.60;;;;;;;;;;4941763;28;20074;-61
2022/01/01 07:28:36;;;;;;;7.28;2.85;;;;;;;;;;4945167;28;20109;-58
2022/01/01 07:31:04;;;;;;;7.05;3.10;;;;;;;;;;4939351;28;20141;-61
2022/01/01 07:33:30;;;;;;;8.45;3.50;;;;;;;;;;4945046;28;20078;-59
2022/01/01 07:35:57;;;;;;;9.45;4.03;;;;;;;;;;4931762;28;20138;-60
2022/01/01 07:38:23;;;;;;;7.38;3.95;;;;;;;;;;4946130;28;20082;-59
2022/01/01 07:40:50;;;;;;;9.57;4.80;;;;;;;;;;4946385;28;20051;-60
2022/01/01 07:43:19;;;;;;;6.03;4.32;;;;;;;;;;4942141;28;20086;-57
2022/01/01 07:45:46;;;;;;;8.05;4.05;;;;;;;;;;4944070;28;20059;-59
2022/01/01 07:48:14;;;;;;;9.50;4.20;;;;;;;;;;4939118;28;20392;-61
2022/01/01 07:50:41;;;;;;;9.85;5.22;;;;;;;;;;4942281;28;20141;-62
2022/01/01 07:53:09;;;;;;;7.30;3.75;;;;;;;;;;4941869;28;20055;-61
2022/01/01 07:55:36;;;;;;;6.95;3.30;;;;;;;;;;4947404;28;20051;-60
2022/01/01 07:58:02;;;;;;;6.28;2.83;;;;;;;;;;4949602;28;20338;-62
2022/01/01 08:00:29;;;;;;;7.40;3.50;;;;;;;;;;4947241;28;20086;-62
2022/01/01 08:02:55;;;;;;;7.57;3.45;;;;;;;;;;4944333;28;20587;-63
2022/01/01 08:05:23;;;;;;;5.95;2.95;;;;;;;;;;4943841;28;20141;-61
2022/01/01 08:07:50;;;;;;;10.65;3.70;;;;;;;;;;4946475;28;20519;-60
2022/01/01 08:10:19;;;;;;;10.23;3.40;;;;;;;;;;4945573;28;20148;-61
2022/01/01 08:12:46;;;;;;;8.82;3.38;;;;;;;;;;4949594;28;20145;-62
2022/01/01 08:15:13;;;;;;;6.97;3.50;;;;;;;;;;4948772;28;20765;-60
2022/01/01 08:17:39;;;;;;;9.07;4.68;;;;;;;;;;4949756;28;20074;-61
2022/01/01 08:20:06;;;;;;;8.80;4.72;;;;;;;;;;4943716;28;20350;-61
2022/01/01 08:22:34;;;;;;;9.52;4.53;;;;;;;;;;4949276;28;20082;-62
2022/01/01 08:25:02;;;;;;;10.35;3.92;;;;;;;;;;4945906;28;20153;-62
2022/01/01 08:27:28;;;;;;;8.32;4.95;;;;;;;;;;4945008;28;20161;-61
2022/01/01 08:29:55;;;;;;;9.02;4.78;;;;;;;;;;4939427;28;20070;-61
2022/01/01 08:32:21;;;;;;;19.75;12.65;;;;;;;;;;4950763;28;20145;-58
2022/01/01 08:34:48;;;;;;;20.20;11.73;;;;;;;;;;4947529;28;20141;-63
2022/01/01 08:37:14;;;;;;;14.07;8.95;;;;;;;;;;4950251;28;20128;-63
2022/01/01 08:39:42;;;;;;;8.23;4.68;;;;;;;;;;4943656;28;20215;-61
2022/01/01 08:42:10;;;;;;;10.25;6.50;;;;;;;;;;4933745;28;20044;-59
2022/01/01 08:44:36;;;;;;;13.02;7.30;;;;;;;;;;4943816;28;20384;-63
2022/01/01 08:47:03;;;;;;;9.70;5.60;;;;;;;;;;4933997;28;20117;-63
2022/01/01 08:49:30;;;;;;;10.98;6.20;;;;;;;;;;4949359;28;20143;-63
2022/01/01 08:51:56;;;;;;;8.63;5.68;;;;;;;;;;4947898;28;20082;-62
2022/01/01 08:54:23;;;;;;;13.15;7.72;;;;;;;;;;4944409;28;20157;-62
2022/01/01 08:56:51;;;;;;;11.95;6.80;;;;;;;;;;4945885;28;20051;-59
2022/01/01 08:59:19;;;;;;;14.35;7.82;;;;;;;;;;4945946;28;20313;-63
2022/01/01 09:01:45;;;;;;;13.40;8.63;;;;;;;;;;4948424;28;20149;-62
2022/01/01 09:04:12;;;;;;;10.02;5.55;;;;;;;;;;4948973;28;21153;-63
2022/01/01 09:06:38;;;;;;;6.68;4.03;;;;;;;;;;4928212;28;20079;-61
2022/01/01 09:09:05;;;;;;;6.72;3.97;;;;;;;;;;4948026;28;20070;-61
2022/01/01 09:11:31;;;;;;;6.57;3.70;;;;;;;;;;4949245;28;20830;-61
2022/01/01 09:13:59;;;;;;;7.28;3.65;;;;;;;;;;4945828;28;20098;-62
2022/01/01 09:16:29;;;;;;;6.90;3.78;;;;;;;;;;4946513;28;20130;-63
2022/01/01 09:18:57;;;;;;;6.32;3.88;;;;;;;;;;4948693;28;20105;-63
2022/01/01 09:21:24;;;;;;;12.30;4.68;;;;;;;;;;4943209;28;20142;-63
2022/01/01 09:23:50;;;;;;;26.15;6.30;;;;;;;;;;4945710;28;20142;-63
2022/01/01 09:26:17;;;;;;;16.02;5.50;;;;;;;;;;4950249;28;20194;-63
2022/01/01 09:28:44;;;;;;;23.33;7.50;;;;;;;;;;4943257;28;20141;-63
2022/01/01 09:31:12;;;;;;;9.00;4.40;;;;;;;;;;4930639;28;20070;-62
2022/01/01 09:33:38;;;;;;;8.68;4.28;;;;;;;;;;4947710;28;20090;-63
2022/01/01 09:36:06;;;;;;;6.82;4.38;;;;;;;;;;4947034;28;20662;-62
2022/01/01 09:38:34;;;;;;;7.38;4.10;;;;;;;;;;4948227;28;20140;-63
2022/01/01 09:41:01;;;;;;;8.90;4.45;;;;;;;;;;4943517;28;20086;-62
2022/01/01 09:43:29;;;;;;;7.80;4.47;;;;;;;;;;4940909;28;20499;-62
2022/01/01 09:45:56;;;;;;;8.57;5.38;;;;;;;;;;4939237;28;20558;-61
2022/01/01 09:48:25;;;;;;;11.50;7.20;;;;;;;;;;4947608;28;20194;-62
2022/01/01 09:50:54;;;;;;;10.55;6.43;;;;;;;;;;4941690;28;20155;-60
2022/01/01 09:53:22;;;;;;;11.18;6.93;;;;;;;;;;4938765;28;20074;-62
2022/01/01 09:55:49;;;;;;;8.07;6.10;;;;;;;;;;4943396;28;20062;-61
2022/01/01 09:58:15;;;;;;;10.90;5.38;;;;;;;;;;4944761;28;20075;-63
2022/01/01 10:00:42;;;;;;;10.45;6.15;;;;;;;;;;4939813;28;20184;-63
2022/01/01 10:03:12;;;;;;;14.52;7.75;;;;;;;;;;4939907;28;20737;-61
2022/01/01 10:05:57;;;;;;;11.15;7.05;;;;;;;;;;4941533;28;20082;-63
2022/01/01 10:08:24;;;;;;;12.38;6.00;;;;;;;;;;4943020;28;20554;-63
2022/01/01 10:10:51;;;;;;;10.15;6.07;;;;;;;;;;4940381;28;20451;-63
2022/01/01 10:13:18;;;;;;;9.85;5.75;;;;;;;;;;4946099;28;20538;-62
2022/01/01 10:15:44;;;;;;;9.05;5.70;;;;;;;;;;4942095;28;20055;-64
2022/01/01 10:18:11;;;;;;;8.07;5.55;;;;;;;;;;4953473;28;20145;-61
2022/01/01 10:20:43;;;;;;;7.05;5.25;;;;;;;;;;4953158;28;20070;-63
2022/01/01 10:23:26;;;;;;;9.18;4.90;;;;;;;;;;4951885;28;20047;-62
2022/01/01 10:28:37;;;;;;;6.32;3.90;;;;;;;;;;4944541;28;20571;-63
2022/01/01 10:31:08;;;;;;;7.78;4.88;;;;;;;;;;4929016;28;20182;-64
2022/01/01 10:33:34;;;;;;;6.72;4.00;;;;;;;;;;4948209;28;20795;-63
2022/01/01 10:36:04;;;;;;;9.13;4.47;;;;;;;;;;4934452;28;20110;-63
2022/01/01 10:38:32;;;;;;;8.95;4.72;;;;;;;;;;4950449;28;21385;-61
2022/01/01 10:41:06;;;;;;;13.00;4.75;;;;;;;;;;4932744;28;20105;-64
2022/01/01 10:43:37;;;;;;;11.90;4.80;;;;;;;;;;4945195;28;20142;-63
2022/01/01 10:46:04;;;;;;;11.02;4.55;;;;;;;;;;4940780;28;20154;-64
2022/01/01 10:48:42;;;;;;;15.02;6.35;;;;;;;;;;4950392;28;20078;-63
2022/01/01 10:51:11;;;;;;;24.98;5.03;;;;;;;;;;4944472;28;20475;-63
2022/01/01 10:53:39;;;;;;;9.23;5.30;;;;;;;;;;4938620;28;20137;-63
2022/01/01 10:56:18;;;;;;;8.75;4.40;;;;;;;;;;4945673;28;20114;-64
2022/01/01 10:58:44;;;;;;;8.85;4.95;;;;;;;;;;4946368;28;20244;-63
2022/01/01 11:01:11;;;;;;;8.27;4.65;;;;;;;;;;4950538;28;20623;-64
2022/01/01 11:03:39;;;;;;;8.30;4.97;;;;;;;;;;4948721;28;20055;-65
2022/01/01 11:06:08;;;;;;;9.10;5.25;;;;;;;;;;4940295;28;20092;-64
2022/01/01 11:08:35;;;;;;;8.45;5.18;;;;;;;;;;4949848;28;20403;-63
2022/01/01 11:11:04;;;;;;;10.40;5.60;;;;;;;;;;4946810;28;20530;-64
2022/01/01 11:13:31;;;;;;;9.75;5.55;;;;;;;;;;4945244;28;20498;-64
2022/01/01 11:15:58;;;;;;;9.05;5.25;;;;;;;;;;4941308;28;20126;-64
2022/01/01 11:18:25;;;;;;;9.73;5.45;;;;;;;;;;4939951;28;20138;-63
2022/01/01 11:20:52;;;;;;;8.20;4.68;;;;;;;;;;4944687;28;20475;-60
2022/01/01 11:23:20;;;;;;;7.78;4.57;;;;;;;;;;4947162;28;20617;-64
2022/01/01 11:25:47;;;;;;;15.85;5.55;;;;;;;;;;4948873;28;20242;-63
2022/01/01 11:28:17;;;;;;;11.02;4.53;;;;;;;;;;4937083;28;20170;-63
2022/01/01 11:30:47;;;;;;;13.30;5.35;;;;;;;;;;4914225;28;20584;-63
2022/01/01 11:33:16;;;;;;;13.43;5.35;;;;;;;;;;4906405;28;20134;-64
2022/01/01 11:35:45;;;;;;;7.82;5.07;;;;;;;;;;4916617;28;20060;-63
2022/01/01 11:38:13;;;;;;;7.97;4.80;;;;;;;;;;4913577;28;20139;-65
2022/01/01 11:40:44;;;;;;;8.45;4.78;;;;;;;;;;4912888;28;20100;-63
2022/01/01 11:43:40;;;;;;;11.57;5.40;;;;;;;;;;4908760;28;20051;-61
2022/01/01 11:46:15;;;;;;;8.77;4.60;;;;;;;;;;4919497;28;20058;-62
2022/01/01 11:48:47;;;;;;;10.18;5.53;;;;;;;;;;4906060;28;20954;-63
2022/01/01 11:51:32;;;;;;;8.07;4.68;;;;;;;;;;4900525;28;20051;-63
2022/01/01 11:54:11;;;;;;;8.43;4.33;;;;;;;;;;4900447;28;20055;-62
2022/01/01 11:57:11;;;;;;;9.05;5.20;;;;;;;;;;4911718;28;20079;-62
2022/01/01 11:59:55;;;;;;;9.30;5.80;;;;;;;;;;4916336;28;20047;-62
2022/01/01 12:02:38;;;;;;;7.75;4.63;;;;;;;;;;4920701;28;20051;-62
2022/01/01 12:05:20;;;;;;;9.38;4.40;;;;;;;;;;4909337;28;21654;-62
2022/01/01 12:07:49;;;;;;;12.20;5.38;;;;;;;;;;4923820;28;20150;-63
2022/01/01 12:10:19;;;;;;;7.50;4.72;;;;;;;;;;4913641;28;20047;-63
2022/01/01 12:12:48;;;;;;;9.15;5.25;;;;;;;;;;4919077;28;20142;-63
2022/01/01 12:15:41;;;;;;;7.95;4.70;;;;;;;;;;4914458;28;20052;-63
2022/01/01 12:18:10;;;;;;;7.60;4.55;;;;;;;;;;4904797;28;20174;-61
2022/01/01 12:20:38;;;;;;;6.63;4.22;;;;;;;;;;4912420;28;20246;-61
2022/01/01 12:23:06;;;;;;;8.20;4.85;;;;;;;;;;4920962;28;20048;-63
2022/01/01 12:25:34;;;;;;;8.25;4.60;;;;;;;;;;4912809;28;20079;-63
2022/01/01 12:28:04;;;;;;;10.57;5.00;;;;;;;;;;4917209;28;20134;-63
2022/01/01 12:30:35;;;;;;;6.65;4.55;;;;;;;;;;4905674;28;20567;-63
2022/01/01 12:33:01;;;;;;;6.78;3.95;;;;;;;;;;4903116;28;20062;-63
2022/01/01 12:35:40;;;;;;;6.78;4.50;;;;;;;;;;4905255;28;20059;-62
2022/01/01 12:38:07;;;;;;;7.60;4.22;;;;;;;;;;4912010;28;20142;-61
2022/01/01 12:40:34;;;;;;;8.77;4.45;;;;;;;;;;4918766;28;20523;-62
2022/01/01 12:43:08;;;;;;;7.22;4.32;;;;;;;;;;4915816;28;20047;-62
2022/01/01 12:45:37;;;;;;;8.25;4.32;;;;;;;;;;4912607;28;20138;-63
2022/01/01 12:48:04;;;;;;;11.35;5.15;;;;;;;;;;4920947;28;20146;-63
2022/01/01 12:50:30;;;;;;;10.23;4.85;;;;;;;;;;4915281;28;20094;-63
2022/01/01 12:52:58;;;;;;;8.65;4.25;;;;;;;;;;4910455;28;20227;-65
2022/01/01 12:55:25;;;;;;;12.25;4.63;;;;;;;;;;4922993;28;20388;-61
2022/01/01 12:58:06;;;;;;;11.02;4.93;;;;;;;;;;4898568;28;20514;-63
2022/01/01 13:00:37;;;;;;;9.50;4.63;;;;;;;;;;4917351;28;20055;-63
2022/01/01 13:03:06;;;;;;;9.00;4.80;;;;;;;;;;4875331;28;20416;-62
2022/01/01 13:05:33;;;;;;;9.93;5.38;;;;;;;;;;4910045;28;21762;-63
2022/01/01 13:08:04;;;;;;;8.77;4.97;;;;;;;;;;4904220;28;20072;-63
2022/01/01 13:10:33;;;;;;;7.65;4.15;;;;;;;;;;4923578;28;20134;-63
2022/01/01 13:12:59;;;;;;;6.70;4.32;;;;;;;;;;4925562;28;20063;-61
2022/01/01 13:15:26;;;;;;;7.90;4.68;;;;;;;;;;4936011;28;20060;-61
2022/01/01 13:17:53;;;;;;;8.07;4.43;;;;;;;;;;4937870;28;20112;-62
2022/01/01 13:20:21;;;;;;;8.93;4.68;;;;;;;;;;4920170;28;20140;-62
2022/01/01 13:22:47;;;;;;;6.65;4.60;;;;;;;;;;4931914;28;20086;-62
2022/01/01 13:25:14;;;;;;;7.93;4.57;;;;;;;;;;4927324;28;20142;-63
2022/01/01 13:27:40;;;;;;;6.50;3.90;;;;;;;;;;4939618;28;20150;-62
2022/01/01 13:30:08;;;;;;;7.85;4.00;;;;;;;;;;4930217;28;20174;-62
2022/01/01 13:32:35;;;;;;;6.47;3.80;;;;;;;;;;4941845;28;21325;-62
2022/01/01 13:35:02;;;;;;;8.32;4.22;;;;;;;;;;4934356;28;20195;-62
2022/01/01 13:37:30;;;;;;;7.05;4.18;;;;;;;;;;4931000;28;20506;-62
2022/01/01 13:39:58;;;;;;;7.15;4.00;;;;;;;;;;4933586;28;20161;-59
2022/01/01 13:42:24;;;;;;;6.68;3.83;;;;;;;;;;4931308;28;20063;-62
2022/01/01 13:44:51;;;;;;;5.32;3.65;;;;;;;;;;4923406;28;20087;-62
2022/01/01 13:47:23;;;;;;;8.68;3.85;;;;;;;;;;4930424;28;20177;-62
2022/01/01 13:49:51;;;;;;;5.82;3.75;;;;;;;;;;4946728;28;20627;-62
2022/01/01 13:52:19;;;;;;;5.85;3.50;;;;;;;;;;4954351;28;20137;-62
2022/01/01 13:54:47;;;;;;;5.75;3.70;;;;;;;;;;4953775;28;20610;-62
2022/01/01 13:57:14;;;;;;;6.03;3.38;;;;;;;;;;4952839;28;20050;-63
2022/01/01 13:59:41;;;;;;;5.72;3.25;;;;;;;;;;4953977;28;20133;-62
2022/01/01 14:02:09;;;;;;;7.22;3.30;;;;;;;;;;4953615;28;20615;-62
2022/01/01 14:04:37;;;;;;;5.43;2.95;;;;;;;;;;4955463;28;20070;-62
2022/01/01 14:07:06;;;;;;;6.82;3.60;;;;;;;;;;4956535;28;20451;-62
2022/01/01 14:09:33;;;;;;;5.38;3.13;;;;;;;;;;4955931;28;20110;-62
2022/01/01 14:12:02;;;;;;;5.88;3.17;;;;;;;;;;4961610;28;20131;-63
2022/01/01 14:14:30;;;;;;;27.70;5.63;;;;;;;;;;4961248;28;20550;-62
2022/01/01 14:16:57;;;;;;;11.88;3.78;;;;;;;;;;4961740;28;20082;-62
2022/01/01 14:19:24;;;;;;;7.75;4.20;;;;;;;;;;4960339;28;20074;-63
2022/01/01 14:21:52;;;;;;;10.48;3.80;;;;;;;;;;4959122;28;20142;-63
2022/01/01 14:24:20;;;;;;;7.25;3.40;;;;;;;;;;4961839;28;20158;-62
2022/01/01 14:26:48;;;;;;;9.23;4.18;;;;;;;;;;4940230;28;20051;-63
2022/01/01 14:29:22;;;;;;;6.75;4.00;;;;;;;;;;4941031;28;20102;-62
2022/01/01 14:31:49;;;;;;;5.90;4.43;;;;;;;;;;4960064;28;20436;-62
2022/01/01 14:34:19;;;;;;;7.38;4.22;;;;;;;;;;4960008;28;20137;-63
2022/01/01 14:36:47;;;;;;;6.47;4.13;;;;;;;;;;4960459;28;20086;-63
2022/01/01 14:39:14;;;;;;;7.18;3.70;;;;;;;;;;4958851;28;20161;-62
2022/01/01 14:41:41;;;;;;;6.00;3.50;;;;;;;;;;4958388;28;20075;-62
2022/01/01 14:44:07;;;;;;;7.22;3.50;;;;;;;;;;4959697;28;22606;-62
2022/01/01 14:46:40;;;;;;;7.45;4.18;;;;;;;;;;4959375;28;20083;-62